Time;durP1;ratioP1;P1;durP2;ratioP2;P2;SDS_P1;SDS_P2;PMS_P1;PMS_P2;Temp;Humidity;BMP_temperature;BMP_pressure;BME280_temperature;BME280_humidity;BME280_pressure;Samples;Min_cycle;Max_cycle;Signal;HPM_P1;HPM_P2
2020/12/07 00:00:18;;;;;;;72.18;41.92;;;7.30;99.90;;;;;;5034979;28;20090;-62
2020/12/07 00:02:44;;;;;;;77.65;40.30;;;7.30;99.90;;;;;;5028087;28;20021;-62
2020/12/07 00:05:10;;;;;;;75.82;41.67;;;7.30;99.90;;;;;;5031946;28;20036;-62
2020/12/07 00:07:36;;;;;;;70.68;41.33;;;7.30;99.90;;;;;;5016825;28;20025;-63
2020/12/07 00:10:03;;;;;;;73.80;43.13;;;7.20;99.90;;;;;;5035868;28;20555;-62
2020/12/07 00:12:30;;;;;;;77.63;40.80;;;7.30;99.90;;;;;;5033729;28;20033;-62
2020/12/07 00:14:57;;;;;;;70.47;41.40;;;7.30;99.90;;;;;;5035186;28;20092;-62
2020/12/07 00:17:24;;;;;;;75.18;41.70;;;7.30;99.90;;;;;;5031403;28;20031;-62
2020/12/07 00:19:51;;;;;;;73.32;41.22;;;7.30;99.90;;;;;;5036722;28;20195;-62
2020/12/07 00:22:24;;;;;;;68.78;39.75;;;7.30;99.90;;;;;;5031447;28;20379;-62
2020/12/07 00:24:51;;;;;;;74.22;41.85;;;7.20;99.90;;;;;;5033602;28;20210;-62
2020/12/07 00:27:28;;;;;;;65.70;41.17;;;7.20;99.90;;;;;;5033337;28;20029;-63
2020/12/07 00:29:56;;;;;;;71.57;41.22;;;7.20;99.90;;;;;;5034873;28;20040;-62
2020/12/07 00:32:23;;;;;;;69.72;40.92;;;7.20;99.90;;;;;;5034169;28;20567;-62
2020/12/07 00:34:50;;;;;;;70.75;40.60;;;7.20;99.90;;;;;;5033823;28;20251;-62
2020/12/07 00:37:17;;;;;;;72.00;42.00;;;7.30;99.90;;;;;;5032503;28;20148;-62
2020/12/07 00:39:43;;;;;;;69.90;40.75;;;7.30;99.90;;;;;;5036139;28;20621;-62
2020/12/07 00:42:09;;;;;;;77.00;40.28;;;7.30;99.90;;;;;;5033004;28;20132;-62
2020/12/07 00:44:39;;;;;;;69.35;40.00;;;7.30;99.90;;;;;;5031702;28;20500;-62
2020/12/07 00:47:06;;;;;;;70.32;41.53;;;7.40;99.90;;;;;;5035858;28;20064;-63
2020/12/07 00:49:33;;;;;;;71.50;42.45;;;7.40;99.90;;;;;;5033997;28;20049;-62
2020/12/07 00:51:59;;;;;;;60.97;38.00;;;7.40;99.90;;;;;;5035319;28;20786;-62
2020/12/07 00:54:25;;;;;;;69.88;39.40;;;7.40;99.90;;;;;;5033843;28;20029;-63
2020/12/07 00:56:55;;;;;;;64.03;38.15;;;7.50;99.90;;;;;;5034485;28;20468;-63
2020/12/07 00:59:21;;;;;;;62.95;37.60;;;7.50;99.90;;;;;;5034259;28;20033;-62
2020/12/07 01:01:48;;;;;;;72.38;40.58;;;7.30;99.90;;;;;;5033677;28;20041;-62
2020/12/07 01:04:14;;;;;;;64.25;39.53;;;7.50;99.90;;;;;;5033511;28;20052;-62
2020/12/07 01:06:40;;;;;;;69.05;38.83;;;7.40;99.90;;;;;;5033433;28;20566;-62
2020/12/07 01:09:06;;;;;;;69.47;39.88;;;7.50;99.90;;;;;;5034033;28;20112;-63
2020/12/07 01:11:32;;;;;;;65.88;39.42;;;7.50;99.90;;;;;;5033497;28;20474;-62
2020/12/07 01:13:58;;;;;;;66.32;39.38;;;7.50;99.90;;;;;;5031725;28;20044;-62
2020/12/07 01:16:24;;;;;;;67.85;37.72;;;7.50;99.90;;;;;;5034736;28;20352;-62
2020/12/07 01:18:51;;;;;;;63.13;37.78;;;7.40;99.90;;;;;;5034740;28;20033;-62
2020/12/07 01:21:18;;;;;;;61.47;37.85;;;7.50;99.90;;;;;;5032758;28;20025;-62
2020/12/07 01:23:44;;;;;;;59.17;37.97;;;7.50;99.90;;;;;;5034112;28;20044;-62
2020/12/07 01:26:14;;;;;;;60.95;36.70;;;7.60;99.90;;;;;;5034075;28;20659;-62
2020/12/07 01:28:41;;;;;;;59.95;34.58;;;7.60;99.90;;;;;;5033949;28;20048;-62
2020/12/07 01:31:07;;;;;;;59.97;37.22;;;7.60;99.90;;;;;;5035177;28;20053;-62
2020/12/07 01:33:33;;;;;;;59.03;36.47;;;7.60;99.90;;;;;;5036814;28;20035;-63
2020/12/07 01:35:59;;;;;;;66.10;37.45;;;7.60;99.90;;;;;;5038631;28;20471;-62
2020/12/07 01:38:25;;;;;;;59.97;36.33;;;7.60;99.90;;;;;;5039380;28;20057;-62
2020/12/07 01:40:51;;;;;;;59.75;36.63;;;7.50;99.90;;;;;;5041628;28;20025;-63
2020/12/07 01:43:20;;;;;;;56.33;34.28;;;7.60;99.90;;;;;;5037021;28;20040;-63
2020/12/07 01:45:46;;;;;;;58.53;36.28;;;7.60;99.90;;;;;;5039813;28;20032;-63
2020/12/07 01:48:13;;;;;;;61.90;34.95;;;7.50;99.90;;;;;;5041981;28;20033;-63
2020/12/07 01:50:41;;;;;;;56.20;34.83;;;7.60;99.90;;;;;;5036668;28;20048;-63
2020/12/07 01:53:08;;;;;;;54.88;34.38;;;7.60;99.90;;;;;;5039252;28;20037;-62
2020/12/07 01:55:34;;;;;;;58.33;35.17;;;7.60;99.90;;;;;;5037818;28;20035;-62
2020/12/07 01:58:00;;;;;;;55.78;34.35;;;7.50;99.90;;;;;;5037749;28;20031;-63
2020/12/07 02:00:26;;;;;;;55.05;34.47;;;7.60;99.90;;;;;;5037403;28;20130;-62
2020/12/07 02:02:52;;;;;;;56.67;33.85;;;7.60;99.90;;;;;;5031890;28;20395;-63
2020/12/07 02:05:18;;;;;;;54.72;34.28;;;7.60;99.90;;;;;;5036330;28;20363;-63
2020/12/07 02:07:44;;;;;;;56.22;33.42;;;7.60;99.90;;;;;;5033220;28;20047;-63
2020/12/07 02:10:10;;;;;;;53.80;34.13;;;7.60;99.90;;;;;;5038065;28;20388;-63
2020/12/07 02:12:36;;;;;;;54.80;32.90;;;7.60;99.90;;;;;;5037901;28;20033;-63
2020/12/07 02:15:02;;;;;;;53.63;33.70;;;7.50;99.90;;;;;;5035501;28;20029;-63
2020/12/07 02:17:28;;;;;;;56.63;35.50;;;7.50;99.90;;;;;;5037304;28;20110;-63
2020/12/07 02:19:53;;;;;;;61.47;34.85;;;7.50;99.90;;;;;;5036234;28;20508;-63
2020/12/07 02:22:19;;;;;;;56.75;33.40;;;7.50;99.90;;;;;;5036373;28;20064;-63
2020/12/07 02:24:45;;;;;;;54.95;34.20;;;7.60;99.90;;;;;;5036581;28;20053;-63
2020/12/07 02:27:11;;;;;;;55.55;34.30;;;7.50;99.90;;;;;;5033290;28;20120;-62
2020/12/07 02:29:37;;;;;;;53.00;33.30;;;7.50;99.90;;;;;;5037540;28;20137;-63
2020/12/07 02:32:14;;;;;;;54.38;32.10;;;7.50;99.90;;;;;;5035456;28;20577;-63
2020/12/07 02:34:41;;;;;;;49.53;31.67;;;7.50;99.90;;;;;;5036509;28;20029;-62
2020/12/07 02:37:07;;;;;;;50.33;30.55;;;7.50;99.90;;;;;;5036935;28;20488;-62
2020/12/07 02:39:33;;;;;;;59.20;33.88;;;7.50;99.90;;;;;;5037527;28;20044;-63
2020/12/07 02:42:01;;;;;;;57.65;33.63;;;7.50;99.90;;;;;;4998401;28;20078;-63
2020/12/07 02:44:27;;;;;;;52.88;32.60;;;7.50;99.90;;;;;;5035984;28;20040;-62
2020/12/07 02:46:53;;;;;;;52.58;32.13;;;7.50;99.90;;;;;;5036847;28;20029;-62
2020/12/07 02:49:19;;;;;;;56.05;33.83;;;7.50;99.90;;;;;;5033455;28;20032;-63
2020/12/07 02:51:45;;;;;;;54.50;34.33;;;7.60;99.90;;;;;;5031047;28;20091;-63
2020/12/07 02:54:12;;;;;;;52.90;33.30;;;7.60;99.90;;;;;;5036256;28;20086;-63
2020/12/07 02:56:37;;;;;;;55.22;33.72;;;7.60;99.90;;;;;;5035849;28;20029;-63
2020/12/07 02:59:03;;;;;;;52.80;32.65;;;7.60;99.90;;;;;;5035977;28;20029;-62
2020/12/07 03:01:29;;;;;;;55.53;32.90;;;7.60;99.90;;;;;;5035674;28;20029;-63
2020/12/07 03:03:55;;;;;;;55.92;33.40;;;7.60;99.90;;;;;;5034295;28;20159;-63
2020/12/07 03:06:21;;;;;;;56.25;33.72;;;7.60;99.90;;;;;;5035722;28;20036;-63
2020/12/07 03:08:46;;;;;;;51.45;33.47;;;7.50;99.90;;;;;;5036254;28;20036;-63
2020/12/07 03:11:12;;;;;;;51.13;32.65;;;7.60;99.90;;;;;;5038168;28;20047;-63
2020/12/07 03:13:38;;;;;;;52.25;33.83;;;7.50;99.90;;;;;;5032252;28;20039;-63
2020/12/07 03:16:04;;;;;;;49.33;32.80;;;7.60;99.90;;;;;;5017648;28;20502;-63
2020/12/07 03:18:29;;;;;;;54.78;33.33;;;7.60;99.90;;;;;;5031245;28;20163;-62
2020/12/07 03:20:56;;;;;;;55.75;33.05;;;7.50;99.90;;;;;;5037364;28;20032;-62
2020/12/07 03:23:22;;;;;;;52.20;33.10;;;7.50;99.90;;;;;;5035079;28;20226;-62
2020/12/07 03:25:48;;;;;;;54.75;33.17;;;7.60;99.90;;;;;;5037417;28;20025;-63
2020/12/07 03:28:14;;;;;;;56.28;33.50;;;7.60;99.90;;;;;;5035177;28;20403;-62
2020/12/07 03:30:39;;;;;;;53.50;34.97;;;7.60;99.90;;;;;;5033541;28;20087;-63
2020/12/07 03:33:05;;;;;;;50.50;32.70;;;7.60;99.90;;;;;;5034957;28;20082;-63
2020/12/07 03:35:31;;;;;;;52.53;32.17;;;7.60;99.90;;;;;;5036455;28;20037;-62
2020/12/07 03:37:57;;;;;;;54.65;34.92;;;7.60;99.90;;;;;;5022775;28;20049;-62
2020/12/07 03:40:23;;;;;;;56.45;34.22;;;7.60;99.90;;;;;;5015923;28;20037;-63
2020/12/07 03:42:48;;;;;;;57.80;35.00;;;7.60;99.90;;;;;;5012418;28;20021;-62
2020/12/07 03:45:14;;;;;;;53.67;36.08;;;7.60;99.90;;;;;;5017025;28;20029;-62
2020/12/07 03:47:40;;;;;;;52.92;33.35;;;7.60;99.90;;;;;;5016028;28;20144;-63
2020/12/07 03:50:06;;;;;;;52.45;33.30;;;7.60;99.90;;;;;;5013782;28;20040;-62
2020/12/07 03:52:32;;;;;;;49.70;32.33;;;7.60;99.90;;;;;;5016335;28;20538;-62
2020/12/07 03:54:57;;;;;;;49.65;31.15;;;7.70;99.90;;;;;;5013450;28;20036;-63
2020/12/07 03:57:23;;;;;;;51.72;32.92;;;7.60;99.90;;;;;;5014040;28;20059;-63
2020/12/07 03:59:49;;;;;;;52.28;34.35;;;7.70;99.90;;;;;;5022479;28;20034;-62
2020/12/07 04:02:15;;;;;;;55.00;31.42;;;7.70;99.90;;;;;;5013812;28;20651;-62
2020/12/07 04:04:49;;;;;;;55.67;33.17;;;7.70;99.90;;;;;;5010182;28;20270;-62
2020/12/07 04:07:15;;;;;;;49.20;31.67;;;7.70;99.90;;;;;;5014496;28;20059;-63
2020/12/07 04:09:41;;;;;;;49.90;32.25;;;7.70;99.90;;;;;;5017435;28;20113;-62
2020/12/07 04:12:07;;;;;;;49.92;33.78;;;7.70;99.90;;;;;;5013914;28;20446;-63
2020/12/07 04:14:32;;;;;;;53.67;32.28;;;7.70;99.90;;;;;;5010406;28;20029;-62
2020/12/07 04:16:58;;;;;;;48.40;32.15;;;7.70;99.90;;;;;;5013519;28;20531;-62
2020/12/07 04:19:24;;;;;;;50.65;32.05;;;7.60;99.90;;;;;;5015749;28;20041;-62
2020/12/07 04:21:50;;;;;;;49.10;31.48;;;7.60;99.90;;;;;;5016724;28;20036;-63
2020/12/07 04:24:16;;;;;;;51.85;32.20;;;7.70;99.90;;;;;;5009710;28;20477;-63
2020/12/07 04:26:41;;;;;;;48.58;32.83;;;7.60;99.90;;;;;;5016670;28;20528;-63
2020/12/07 04:29:07;;;;;;;54.30;31.83;;;7.60;99.90;;;;;;5013393;28;20103;-63
2020/12/07 04:31:33;;;;;;;51.22;31.98;;;7.60;99.90;;;;;;5012685;28;20022;-62
2020/12/07 04:33:59;;;;;;;54.85;32.15;;;7.70;99.90;;;;;;5015904;28;20036;-62
2020/12/07 04:36:24;;;;;;;47.60;31.00;;;7.70;99.90;;;;;;5017092;28;20045;-62
2020/12/07 04:38:50;;;;;;;56.95;31.40;;;7.70;99.90;;;;;;5030947;28;20035;-63
2020/12/07 04:41:16;;;;;;;43.53;29.13;;;7.60;99.90;;;;;;5035554;28;20555;-62
2020/12/07 04:43:42;;;;;;;47.70;29.98;;;7.60;99.90;;;;;;5033378;28;20051;-63
2020/12/07 04:46:09;;;;;;;49.92;31.08;;;7.70;99.90;;;;;;5030592;28;20032;-63
2020/12/07 04:48:35;;;;;;;43.55;28.90;;;7.70;99.90;;;;;;5027812;28;21552;-62
2020/12/07 04:51:02;;;;;;;46.13;28.83;;;7.70;99.90;;;;;;5031571;28;20020;-63
2020/12/07 04:53:29;;;;;;;48.95;30.67;;;7.70;99.90;;;;;;5032559;28;20021;-62
2020/12/07 04:56:00;;;;;;;46.17;28.63;;;7.70;99.90;;;;;;5031622;28;20052;-63
2020/12/07 04:58:26;;;;;;;47.15;30.52;;;7.70;99.90;;;;;;5025213;28;20049;-62
2020/12/07 05:00:52;;;;;;;48.80;29.95;;;7.60;99.90;;;;;;5029482;28;20120;-63
2020/12/07 05:03:18;;;;;;;44.30;28.38;;;7.60;99.90;;;;;;5032126;28;20487;-62
2020/12/07 05:05:44;;;;;;;46.47;29.98;;;7.60;99.90;;;;;;5033360;28;20443;-63
2020/12/07 05:08:10;;;;;;;44.95;27.10;;;7.60;99.90;;;;;;5033692;28;20485;-62
2020/12/07 05:10:43;;;;;;;48.42;28.77;;;7.60;99.90;;;;;;5036227;28;20032;-63
2020/12/07 05:15:42;;;;;;;46.75;27.67;;;7.50;99.90;;;;;;5032575;28;20036;-63
2020/12/07 05:18:08;;;;;;;45.60;28.88;;;7.50;99.90;;;;;;5031279;28;20043;-68
2020/12/07 05:20:34;;;;;;;45.10;28.25;;;7.50;99.90;;;;;;5032938;28;20400;-67
2020/12/07 05:23:01;;;;;;;47.97;29.33;;;7.60;99.90;;;;;;5024600;28;20039;-68
2020/12/07 05:25:28;;;;;;;48.15;29.23;;;7.60;99.90;;;;;;5035879;28;20119;-67
2020/12/07 05:27:57;;;;;;;47.08;29.45;;;7.60;99.90;;;;;;5036018;28;20037;-67
2020/12/07 05:30:29;;;;;;;42.38;28.15;;;7.60;99.90;;;;;;5023303;28;20033;-67
2020/12/07 05:32:55;;;;;;;48.70;29.73;;;7.60;99.90;;;;;;5036916;28;20644;-68
2020/12/07 05:35:21;;;;;;;49.63;28.42;;;7.60;99.90;;;;;;5037416;28;20036;-66
2020/12/07 05:37:46;;;;;;;46.33;28.10;;;7.60;99.90;;;;;;5033943;28;20054;-67
2020/12/07 05:40:14;;;;;;;46.63;28.70;;;7.60;99.90;;;;;;5036899;28;20560;-68
2020/12/07 05:42:40;;;;;;;46.58;28.50;;;7.50;99.90;;;;;;5032619;28;20021;-68
2020/12/07 05:45:08;;;;;;;51.08;30.58;;;7.60;99.90;;;;;;5035172;28;20640;-68
2020/12/07 05:47:37;;;;;;;50.55;29.88;;;7.60;99.90;;;;;;5031668;28;20060;-68
2020/12/07 05:50:05;;;;;;;47.10;28.60;;;7.60;99.90;;;;;;5014761;28;20248;-67
2020/12/07 05:52:43;;;;;;;45.17;28.30;;;7.60;99.90;;;;;;5033669;28;20045;-67
2020/12/07 05:55:10;;;;;;;49.40;29.63;;;7.60;99.90;;;;;;5034115;28;20031;-67
2020/12/07 05:57:57;;;;;;;45.13;27.75;;;7.60;99.90;;;;;;5031621;28;20045;-67
2020/12/07 06:00:24;;;;;;;42.85;27.90;;;7.60;99.90;;;;;;5026765;28;20496;-67
2020/12/07 06:02:54;;;;;;;48.40;28.42;;;7.60;99.90;;;;;;5032601;28;20044;-67
2020/12/07 06:05:21;;;;;;;45.50;28.60;;;7.60;99.90;;;;;;5029214;28;20472;-67
2020/12/07 06:07:52;;;;;;;45.25;27.13;;;7.60;99.90;;;;;;5034223;28;20132;-67
2020/12/07 06:10:19;;;;;;;50.03;28.40;;;7.60;99.90;;;;;;5034300;28;20033;-67
2020/12/07 06:12:52;;;;;;;44.35;28.20;;;7.60;99.90;;;;;;5037708;28;20362;-66
2020/12/07 06:15:19;;;;;;;42.70;26.38;;;7.60;99.90;;;;;;5033529;28;20032;-67
2020/12/07 06:17:49;;;;;;;45.47;27.15;;;7.60;99.90;;;;;;5036844;28;20423;-67
2020/12/07 06:20:35;;;;;;;43.38;26.40;;;7.70;99.90;;;;;;5038676;28;20147;-67
2020/12/07 06:23:02;;;;;;;40.17;25.58;;;7.70;99.90;;;;;;5035999;28;20029;-67
2020/12/07 06:25:30;;;;;;;40.90;26.45;;;7.70;99.90;;;;;;5038818;28;20617;-67
2020/12/07 06:28:03;;;;;;;39.20;26.00;;;7.70;99.90;;;;;;5039758;28;20120;-67
2020/12/07 06:30:31;;;;;;;43.25;26.15;;;7.70;99.90;;;;;;5039174;28;20122;-67
2020/12/07 06:33:02;;;;;;;42.67;26.98;;;7.70;99.90;;;;;;5038128;28;20492;-67
2020/12/07 06:35:28;;;;;;;43.60;26.40;;;7.70;99.90;;;;;;5035933;28;20037;-67
2020/12/07 06:37:54;;;;;;;42.50;27.60;;;7.70;99.90;;;;;;5038284;28;20103;-66
2020/12/07 06:40:24;;;;;;;48.63;28.42;;;7.70;99.90;;;;;;5020449;28;20060;-67
2020/12/07 06:42:49;;;;;;;;;;;7.70;99.90;;;;;;5039056;28;20447;-66
2020/12/07 06:45:32;;;;;;;42.70;26.15;;;7.70;99.90;;;;;;5018511;28;20055;-67
2020/12/07 06:48:14;;;;;;;40.33;26.15;;;7.60;99.90;;;;;;5036250;28;20043;-66
2020/12/07 06:50:42;;;;;;;42.58;26.77;;;7.60;99.90;;;;;;5039753;28;20029;-67
2020/12/07 06:55:58;;;;;;;44.70;27.23;;;7.70;99.90;;;;;;5027784;28;20045;-67
2020/12/07 06:58:37;;;;;;;40.10;25.88;;;7.70;99.90;;;;;;5037216;28;21003;-67
2020/12/07 07:01:14;;;;;;;39.73;26.33;;;7.70;99.90;;;;;;5032268;28;20056;-67
2020/12/07 07:04:06;;;;;;;44.97;26.73;;;7.70;99.90;;;;;;5023886;28;20510;-67
2020/12/07 07:06:31;;;;;;;42.95;24.98;;;7.70;99.90;;;;;;5034876;28;20535;-67
2020/12/07 07:08:59;;;;;;;36.38;24.83;;;7.70;99.90;;;;;;5036140;28;20557;-67
2020/12/07 07:11:26;;;;;;;41.03;26.73;;;7.70;99.90;;;;;;5037596;28;20082;-67
2020/12/07 07:13:52;;;;;;;46.17;26.38;;;7.70;99.90;;;;;;5035940;28;20449;-67
2020/12/07 07:16:18;;;;;;;37.42;26.05;;;7.70;99.90;;;;;;5037041;28;20029;-67
2020/12/07 07:18:45;;;;;;;41.95;25.20;;;7.70;99.90;;;;;;5036289;28;20380;-67
2020/12/07 07:21:11;;;;;;;37.80;25.38;;;7.70;99.90;;;;;;5038232;28;20404;-66
2020/12/07 07:23:41;;;;;;;37.30;25.88;;;7.70;99.90;;;;;;5035752;28;20442;-67
2020/12/07 07:26:20;;;;;;;44.78;27.92;;;7.70;99.90;;;;;;5034836;28;20822;-66
2020/12/07 07:28:46;;;;;;;39.47;26.02;;;7.70;99.90;;;;;;5028425;28;20392;-67
2020/12/07 07:31:14;;;;;;;39.08;25.20;;;7.70;99.90;;;;;;5037272;28;20430;-67
2020/12/07 07:33:39;;;;;;;41.60;27.35;;;7.70;99.90;;;;;;5036699;28;20037;-67
2020/12/07 07:36:05;;;;;;;38.95;24.73;;;7.60;99.90;;;;;;5037983;28;20321;-67
2020/12/07 07:38:33;;;;;;;37.33;24.33;;;7.60;99.90;;;;;;5035553;28;20052;-67
2020/12/07 07:41:00;;;;;;;41.75;24.58;;;7.70;99.90;;;;;;5038191;28;20029;-67
2020/12/07 07:43:27;;;;;;;38.92;24.30;;;7.70;99.90;;;;;;5036798;28;20033;-67
2020/12/07 07:45:58;;;;;;;38.88;25.35;;;7.70;99.90;;;;;;5037898;28;20041;-67
2020/12/07 07:48:32;;;;;;;40.75;24.15;;;7.60;99.90;;;;;;5036461;28;20017;-68
2020/12/07 07:51:16;;;;;;;42.83;25.13;;;7.60;99.90;;;;;;5037230;28;20664;-67
2020/12/07 08:02:06;;;;;;;34.55;23.30;;;7.60;99.90;;;;;;5036732;28;20060;-67
2020/12/07 08:06:16;;;;;;;39.45;24.20;;;7.60;99.90;;;;;;5008475;28;20416;-67
2020/12/07 08:16:22;;;;;;;36.00;23.80;;;7.60;99.90;;;;;;5036584;28;20143;-67
2020/12/07 08:18:54;;;;;;;34.60;23.55;;;7.50;99.90;;;;;;5018091;28;20131;-67
2020/12/07 08:21:31;;;;;;;36.40;23.40;;;7.50;99.90;;;;;;5035970;28;20035;-67
2020/12/07 08:24:05;;;;;;;39.08;23.88;;;7.50;99.90;;;;;;5035586;28;20045;-67
2020/12/07 08:26:31;;;;;;;38.90;25.15;;;7.50;99.90;;;;;;5037072;28;20068;-67
2020/12/07 08:28:58;;;;;;;43.42;24.60;;;7.50;99.90;;;;;;5033575;28;20036;-67
2020/12/07 08:31:23;;;;;;;38.38;24.00;;;7.50;99.90;;;;;;5036465;28;20552;-67
2020/12/07 08:34:00;;;;;;;35.67;24.00;;;7.50;99.90;;;;;;5035419;28;20124;-67
2020/12/07 08:36:28;;;;;;;44.35;25.75;;;7.50;99.90;;;;;;5035740;28;20392;-66
2020/12/07 08:38:54;;;;;;;39.20;23.95;;;7.60;99.90;;;;;;5035310;28;20439;-67
2020/12/07 08:41:22;;;;;;;34.97;24.42;;;7.60;99.90;;;;;;5036001;28;20021;-66
2020/12/07 08:43:58;;;;;;;37.88;24.60;;;7.50;99.90;;;;;;5035393;28;20028;-67
2020/12/07 08:46:27;;;;;;;35.72;24.45;;;7.50;99.90;;;;;;5036110;28;20480;-67
2020/12/07 08:48:54;;;;;;;38.60;25.42;;;7.60;99.90;;;;;;5037350;28;20052;-67
2020/12/07 08:51:21;;;;;;;40.67;24.25;;;7.50;99.90;;;;;;5036656;28;20036;-67
2020/12/07 08:53:47;;;;;;;38.30;25.17;;;7.50;99.90;;;;;;5034421;28;20472;-67
2020/12/07 08:56:13;;;;;;;44.35;26.08;;;7.50;99.90;;;;;;5036453;28;20037;-68
2020/12/07 08:58:39;;;;;;;37.17;24.80;;;7.60;99.90;;;;;;5036262;28;20036;-67
2020/12/07 09:01:07;;;;;;;38.70;24.58;;;7.50;99.90;;;;;;5031413;28;20025;-67
2020/12/07 09:03:34;;;;;;;36.80;23.55;;;7.50;99.90;;;;;;5033005;28;20037;-67
2020/12/07 09:06:01;;;;;;;41.15;25.17;;;7.60;99.90;;;;;;5036553;28;20037;-67
2020/12/07 09:08:27;;;;;;;41.33;24.02;;;7.60;99.90;;;;;;5037041;28;20503;-67
2020/12/07 09:10:53;;;;;;;38.45;25.55;;;7.50;99.90;;;;;;5036774;28;20443;-67
2020/12/07 09:13:19;;;;;;;44.15;27.15;;;7.50;99.90;;;;;;5033920;28;20083;-67
2020/12/07 09:15:45;;;;;;;36.28;24.80;;;7.50;99.90;;;;;;5036983;28;20025;-67
2020/12/07 09:18:10;;;;;;;39.67;26.30;;;7.50;99.90;;;;;;5036190;28;20079;-67
2020/12/07 09:20:36;;;;;;;37.72;24.83;;;7.50;99.90;;;;;;5037187;28;20029;-68
2020/12/07 09:23:02;;;;;;;37.75;24.83;;;7.50;99.90;;;;;;5035512;28;20036;-67
2020/12/07 09:25:28;;;;;;;40.33;25.25;;;7.50;99.90;;;;;;5034681;28;20028;-67
2020/12/07 09:27:54;;;;;;;42.55;24.52;;;7.50;99.90;;;;;;5036495;28;20120;-67
2020/12/07 09:30:19;;;;;;;39.83;25.00;;;7.50;99.90;;;;;;5035680;28;20107;-67
2020/12/07 09:32:46;;;;;;;38.00;26.00;;;7.60;99.90;;;;;;5034406;28;20068;-67
2020/12/07 09:35:13;;;;;;;37.10;23.98;;;7.50;99.90;;;;;;5035960;28;20148;-68
2020/12/07 09:37:39;;;;;;;38.42;24.58;;;7.60;99.90;;;;;;5035929;28;20067;-67
2020/12/07 09:40:06;;;;;;;38.05;25.20;;;7.50;99.90;;;;;;5034988;28;20032;-67
2020/12/07 09:42:32;;;;;;;38.75;24.30;;;7.50;99.90;;;;;;5035810;28;20666;-67
2020/12/07 09:44:58;;;;;;;37.65;25.90;;;7.50;99.90;;;;;;5035266;28;20403;-67
2020/12/07 09:47:25;;;;;;;37.67;24.75;;;7.60;99.90;;;;;;5036471;28;20029;-67
2020/12/07 09:49:51;;;;;;;41.45;26.48;;;7.50;99.90;;;;;;5035874;28;20050;-68
2020/12/07 09:52:17;;;;;;;37.92;25.25;;;7.50;99.90;;;;;;5037099;28;20029;-67
2020/12/07 09:54:43;;;;;;;38.15;24.77;;;7.50;99.90;;;;;;5039346;28;20397;-67
2020/12/07 09:57:08;;;;;;;38.67;25.88;;;7.50;99.90;;;;;;5039140;28;20045;-67
2020/12/07 09:59:35;;;;;;;41.30;25.80;;;7.50;99.90;;;;;;5022149;28;20124;-67
2020/12/07 10:02:02;;;;;;;37.83;25.73;;;7.50;99.90;;;;;;5040107;28;20032;-68
2020/12/07 10:04:27;;;;;;;38.95;26.40;;;7.50;99.90;;;;;;5036390;28;20460;-68
2020/12/07 10:06:54;;;;;;;40.03;25.48;;;7.50;99.90;;;;;;5033505;28;20025;-67
2020/12/07 10:09:20;;;;;;;36.83;24.90;;;7.50;99.90;;;;;;5039448;28;20106;-67
2020/12/07 10:11:46;;;;;;;39.10;25.83;;;7.40;99.90;;;;;;5037937;28;20036;-67
2020/12/07 10:14:12;;;;;;;40.53;24.75;;;7.40;99.90;;;;;;5038190;28;20032;-67
2020/12/07 10:16:41;;;;;;;40.72;24.42;;;7.40;99.90;;;;;;5039644;28;20060;-67
2020/12/07 10:19:07;;;;;;;38.97;24.48;;;7.40;99.90;;;;;;5039163;28;20036;-67
2020/12/07 10:21:33;;;;;;;38.42;25.02;;;7.40;99.90;;;;;;5038807;28;20029;-67
2020/12/07 10:23:59;;;;;;;40.25;25.58;;;7.40;99.90;;;;;;5038029;28;20078;-67
2020/12/07 10:26:26;;;;;;;37.97;24.23;;;7.40;99.90;;;;;;5039226;28;20029;-67
2020/12/07 10:28:52;;;;;;;39.15;25.52;;;7.40;99.90;;;;;;5039257;28;20119;-67
2020/12/07 10:31:19;;;;;;;42.22;26.10;;;7.40;99.90;;;;;;5038845;28;20031;-67
2020/12/07 10:33:46;;;;;;;37.13;24.00;;;7.40;99.90;;;;;;5038629;28;20384;-67
2020/12/07 10:36:12;;;;;;;37.45;24.63;;;7.40;99.90;;;;;;5037928;28;20040;-67
2020/12/07 10:38:38;;;;;;;42.03;25.83;;;7.40;99.90;;;;;;5038299;28;20123;-67
2020/12/07 10:41:04;;;;;;;35.83;24.52;;;7.40;99.90;;;;;;5038993;28;20048;-67
2020/12/07 10:43:30;;;;;;;39.92;25.42;;;7.40;99.90;;;;;;5036840;28;20520;-67
2020/12/07 10:45:56;;;;;;;35.90;23.98;;;7.30;99.90;;;;;;5038541;28;20041;-67
2020/12/07 10:48:22;;;;;;;39.47;26.13;;;7.30;99.90;;;;;;5036104;28;20033;-67
2020/12/07 10:50:48;;;;;;;42.60;23.88;;;7.40;99.90;;;;;;5039195;28;20037;-67
2020/12/07 10:53:14;;;;;;;38.58;25.15;;;7.40;99.90;;;;;;5037904;28;20579;-68
2020/12/07 10:55:41;;;;;;;43.13;26.10;;;7.40;99.90;;;;;;5038526;28;20040;-67
2020/12/07 10:58:06;;;;;;;39.15;25.60;;;7.40;99.90;;;;;;5038416;28;20415;-67
2020/12/07 11:00:32;;;;;;;37.90;26.52;;;7.40;99.90;;;;;;5039614;28;20071;-67
2020/12/07 11:02:58;;;;;;;42.60;26.83;;;7.40;99.90;;;;;;5037549;28;20029;-67
2020/12/07 11:05:24;;;;;;;39.10;25.70;;;7.30;99.90;;;;;;5036231;28;20044;-67
2020/12/07 11:07:53;;;;;;;38.13;24.80;;;7.40;99.90;;;;;;5036671;28;20032;-67
2020/12/07 11:10:19;;;;;;;37.65;25.20;;;7.40;99.90;;;;;;5036342;28;20443;-67
2020/12/07 11:12:49;;;;;;;45.10;26.75;;;7.40;99.90;;;;;;5039140;28;20075;-67
2020/12/07 11:15:15;;;;;;;39.33;25.33;;;7.40;99.90;;;;;;5037145;28;20073;-67
2020/12/07 11:17:41;;;;;;;40.28;25.35;;;7.40;99.90;;;;;;5038383;28;20029;-67
2020/12/07 11:20:06;;;;;;;37.13;24.52;;;7.40;99.90;;;;;;5036395;28;20035;-67
2020/12/07 11:22:32;;;;;;;41.80;25.30;;;7.40;99.90;;;;;;5037701;28;20052;-67
2020/12/07 11:24:58;;;;;;;31.08;22.42;;;7.40;99.90;;;;;;5037480;28;20744;-67
2020/12/07 11:27:24;;;;;;;40.03;26.23;;;7.40;99.90;;;;;;5036977;28;20036;-67
2020/12/07 11:29:50;;;;;;;38.72;24.38;;;7.30;99.90;;;;;;5037767;28;20075;-67
2020/12/07 11:32:15;;;;;;;35.92;24.48;;;7.30;99.90;;;;;;5039140;28;20068;-67
2020/12/07 11:34:41;;;;;;;39.22;23.88;;;7.30;99.90;;;;;;5035899;28;20841;-67
2020/12/07 11:37:08;;;;;;;35.00;24.00;;;7.40;99.90;;;;;;5036384;28;20041;-67
2020/12/07 11:39:47;;;;;;;36.83;23.38;;;7.40;99.90;;;;;;5037647;28;20051;-67
2020/12/07 11:44:41;;;;;;;35.33;23.95;;;7.30;99.90;;;;;;5034082;28;20068;-67
2020/12/07 11:47:09;;;;;;;38.63;25.48;;;7.30;99.90;;;;;;5038279;28;20036;-67
2020/12/07 11:49:35;;;;;;;39.20;24.05;;;7.30;99.90;;;;;;5036569;28;20411;-67
2020/12/07 11:52:05;;;;;;;39.42;25.55;;;7.30;99.90;;;;;;5020439;28;20235;-67
2020/12/07 11:54:31;;;;;;;36.95;24.48;;;7.30;99.90;;;;;;5034982;28;20032;-67
2020/12/07 11:57:01;;;;;;;37.88;24.40;;;7.30;99.90;;;;;;5036191;28;20044;-67
2020/12/07 11:59:27;;;;;;;36.05;24.73;;;7.30;99.90;;;;;;5037435;28;20037;-67
2020/12/07 12:01:52;;;;;;;40.63;24.90;;;7.30;99.90;;;;;;5036879;28;20037;-67
2020/12/07 12:04:18;;;;;;;38.22;24.63;;;7.30;99.90;;;;;;5036291;28;20468;-67
2020/12/07 12:06:44;;;;;;;41.58;25.67;;;7.30;99.90;;;;;;5015094;28;20052;-67
2020/12/07 12:09:11;;;;;;;39.97;24.50;;;7.30;99.90;;;;;;5034596;28;20063;-67
2020/12/07 12:11:39;;;;;;;37.42;23.98;;;7.30;99.90;;;;;;5037127;28;20021;-67
2020/12/07 12:14:07;;;;;;;42.30;24.58;;;7.30;99.90;;;;;;5034181;28;20114;-67
2020/12/07 12:16:34;;;;;;;36.95;24.10;;;7.30;99.90;;;;;;5018359;28;20501;-67
2020/12/07 12:19:00;;;;;;;39.03;24.00;;;7.30;99.90;;;;;;5035965;28;20066;-68
2020/12/07 12:21:28;;;;;;;38.92;24.13;;;7.30;99.90;;;;;;5035825;28;20025;-68
2020/12/07 12:23:54;;;;;;;36.72;23.48;;;7.30;99.90;;;;;;5035527;28;20044;-67
2020/12/07 12:26:21;;;;;;;39.58;24.48;;;7.40;99.90;;;;;;5036427;28;20582;-67
2020/12/07 12:28:48;;;;;;;35.85;23.13;;;7.30;99.90;;;;;;5019704;28;20071;-67
2020/12/07 12:31:14;;;;;;;38.58;23.92;;;7.30;99.90;;;;;;5037290;28;20021;-67
2020/12/07 12:33:42;;;;;;;44.42;24.90;;;7.30;99.90;;;;;;5035635;28;20365;-68
2020/12/07 12:36:14;;;;;;;36.88;23.70;;;7.20;99.90;;;;;;5036616;28;20647;-67
2020/12/07 12:38:39;;;;;;;37.85;23.33;;;7.30;99.90;;;;;;5036136;28;20074;-68
2020/12/07 12:41:06;;;;;;;34.92;23.08;;;7.30;99.90;;;;;;5036713;28;20143;-67
2020/12/07 12:43:32;;;;;;;36.10;22.52;;;7.30;99.90;;;;;;5034732;28;20026;-67
2020/12/07 12:45:58;;;;;;;36.05;22.77;;;7.30;99.90;;;;;;5017983;28;20037;-68
2020/12/07 12:48:23;;;;;;;36.00;24.10;;;7.30;99.90;;;;;;5036432;28;20021;-67
2020/12/07 12:50:49;;;;;;;33.35;22.75;;;7.30;99.90;;;;;;5037102;28;20033;-67
2020/12/07 12:53:15;;;;;;;37.30;24.20;;;7.30;99.90;;;;;;5034304;28;20371;-67
2020/12/07 12:55:41;;;;;;;35.15;23.02;;;7.30;99.90;;;;;;5037600;28;20043;-67
2020/12/07 12:58:07;;;;;;;35.15;22.77;;;7.30;99.90;;;;;;5036347;28;20029;-67
2020/12/07 13:00:33;;;;;;;34.83;23.05;;;7.20;99.90;;;;;;5037059;28;20028;-67
2020/12/07 13:02:59;;;;;;;39.05;23.45;;;7.30;99.90;;;;;;5036329;28;20021;-67